Flight Track Log - Related Links

Times and Time Zones

All times are in EDT time to prevent confusion due to time zone crossing. See the CPZ5714 flight status page for this flight to view local times or setup timezone preferences in your user account.

Time Position Orientation Groundspeed Altitude Reporting Facility
EDT Latitude Longitude Course Direction KTS MPH feet Rate Location/Type
Tue 08:38:30 PM 44.8833 -93.1667 70° East 154 177 2,000  Level Minneapolis TRACON
Tue 08:39:27 PM 44.8664 -93.1061 112° Southeast 199 229 3,000 1,765 Climbing Minneapolis Center
Tue 08:40:29 PM 44.9042 -93.0339 54° Northeast 268 308 5,500 2,855 Climbing Minneapolis Center
Tue 08:41:00 PM 45.0448 -92.6016 68° East  Level FlightAware Approximate
Tue 08:41:31 PM 44.9794 -93.0111 12° North 278 320 8,900  Level Minneapolis Center
Tue 08:42:00 PM 45.0883 -92.4468 70° East  Level FlightAware Approximate
Tue 08:42:33 PM 45.0561 -92.9239 39° Northeast 307 353 12,100  Level Minneapolis Center
Tue 08:43:00 PM 45.1237 -92.2888 70° East  Level FlightAware Approximate
Tue 08:43:35 PM 45.1206 -92.8344 44° Northeast 329 379 13,800  Level Minneapolis Center
Tue 08:44:37 PM 45.1906 -92.7367 45° Northeast 351 404 16,000 1,597 Climbing Minneapolis Center
Tue 08:45:39 PM 45.2544 -92.6197 52° Northeast 383 441 17,100 1,355 Climbing Minneapolis Center
Tue 08:46:41 PM 45.2792 -92.4592 78° East 412 474 18,800 1,645 Climbing Minneapolis Center
Tue 08:47:43 PM 45.3022 -92.2914 79° East 428 493 20,500 1,680 Climbing Minneapolis Center
Tue 08:48:46 PM 45.3319 -92.0847 78° East 441 507 22,300 1,536 Climbing Minneapolis Center
Tue 08:49:48 PM 45.3550 -91.9097 79° East 450 518 23,700 1,258 Climbing Minneapolis Center
Tue 08:50:50 PM 45.3661 -91.7303 85° East 456 525 24,900 1,065 Climbing Minneapolis Center
Tue 08:51:52 PM 45.3500 -91.5403 97° East 479 551 25,900 882 Climbing Minneapolis Center
Tue 08:53:06 PM 45.3369 -91.3514 96° East 483 556 26,900 882 Climbing Minneapolis Center
Tue 08:54:08 PM 45.3444 -91.1053 87° East 486 559 27,900 871 Climbing Minneapolis Center
Tue 08:55:10 PM 45.3522 -90.9144 87° East 485 558 28,700 774 Climbing Minneapolis Center
Tue 08:56:12 PM 45.3369 -90.7211 96° East 491 565 29,500 1,008 Climbing Minneapolis Center
Tue 08:57:15 PM 45.3167 -90.4897 97° East 494 568 30,800 960 Climbing Minneapolis Center
Tue 08:58:17 PM 45.3028 -90.3017 96° East 485 558 31,500 629 Climbing Minneapolis Center
Tue 08:59:19 PM 45.2856 -90.1119 97° East 487 560 32,100 823 Climbing Minneapolis Center
Tue 09:00:21 PM 45.2697 -89.9228 97° East 487 560 33,200 1,000 Climbing Minneapolis Center
Tue 09:01:25 PM 45.2503 -89.7003 97° East 480 552 34,200 667 Climbing Minneapolis Center
Tue 09:02:27 PM 45.2333 -89.5167 97° East 474 545 34,600 387 Climbing Minneapolis Center
Tue 09:03:29 PM 45.2169 -89.3317 97° East 475 547 35,000 194 Climbing Minneapolis Center
Tue 09:04:31 PM 45.1994 -89.1436 97° East 482 555 35,000  Level Minneapolis Center
Tue 09:05:33 PM 45.1806 -88.9542 98° East 488 562 35,000  Level Minneapolis Center
Tue 09:06:36 PM 45.1581 -88.7256 98° East 490 564 35,000  Level Minneapolis Center
Tue 09:07:38 PM 45.1406 -88.5358 97° East 491 565 35,000  Level Minneapolis Center
Tue 09:08:40 PM 45.1208 -88.3464 98° East 489 563 35,000  Level Minneapolis Center
Tue 09:09:42 PM 45.1011 -88.1536 98° East 494 568 35,000  Level Minneapolis Center
Tue 09:10:44 PM 45.0817 -87.9644 98° East 490 564 35,000  Level Minneapolis Center
Tue 09:11:46 PM 45.0614 -87.7731 98° East 491 565 35,000  Level Minneapolis Center
Tue 09:12:48 PM 45.0369 -87.5444 99° East 492 566 35,000  Level Minneapolis Center
Tue 09:13:50 PM 45.0156 -87.3531 99° East 493 567 35,000  Level Minneapolis Center
Tue 09:14:52 PM 44.9939 -87.1622 99° East 494 568 35,000  Level Minneapolis Center
Tue 09:15:54 PM 44.9722 -86.9717 99° East 493 567 35,000  Level Minneapolis Center
Tue 09:16:56 PM 44.9472 -86.7578 99° East 494 568 35,000  Level Minneapolis Center
Tue 09:17:58 PM 44.9264 -86.5808 99° East 500 575 35,000  Level Minneapolis Center
Tue 09:19:00 PM 44.9039 -86.3878 99° East 500 575 35,000  Level Minneapolis Center
Tue 09:20:02 PM 44.8764 -86.1556 99° East 501 577 35,000  Level Minneapolis Center
Tue 09:21:04 PM 44.8519 -85.9642 100° East 498 573 35,000  Level Minneapolis Center
Tue 09:22:06 PM 44.8278 -85.7717 100° East 499 574 35,000  Level Minneapolis Center
Tue 09:23:09 PM 44.8036 -85.5689 99° East 498 573 35,000  Level Minneapolis Center
Tue 09:24:11 PM 44.7789 -85.3747 100° East 503 579 35,000  Level Minneapolis Center
Tue 09:25:13 PM 44.7536 -85.1822 100° East 502 578 35,000  Level Minneapolis Center
Tue 09:26:15 PM 44.7294 -84.9883 100° East 504 580 35,000  Level Minneapolis Center
Tue 09:27:17 PM 44.6972 -84.7575 101° East 504 580 35,000  Level Minneapolis Center
Tue 09:28:19 PM 44.6708 -84.5642 101° East 506 582 35,000  Level Minneapolis Center
Tue 09:30:18 PM 44.6167 -84.1833 101° East 500 575 35,000  Level Toronto Center
Tue 09:31:18 PM 44.5833 -83.9833 103° East 500 575 35,000  Level Toronto Center
Tue 09:32:18 PM 44.5500 -83.8000 104° East 500 575 35,000  Level Toronto Center
Tue 09:33:18 PM 44.5333 -83.6167 97° East 500 575 35,000  Level Toronto Center
Tue 09:34:18 PM 44.4833 -83.4167 109° East 500 575 35,000  Level Toronto Center
Tue 09:35:18 PM 44.4667 -83.2333 97° East 500 575 35,000  Level Toronto Center
Tue 09:36:18 PM 44.4333 -83.0167 102° East 500 575 35,000  Level Toronto Center
Tue 09:37:18 PM 44.4000 -82.8500 106° East 500 575 35,000  Level Toronto Center
Tue 09:38:18 PM 44.3833 -82.6500 97° East 500 575 35,000  Level Toronto Center
Tue 09:39:18 PM 44.3500 -82.4500 103° East 500 575 35,000  Level Toronto Center
Tue 09:40:18 PM 44.3167 -82.2833 106° East 500 575 35,000  Level Toronto Center
Tue 09:41:18 PM 44.2667 -82.0833 109° East 500 575 35,000  Level Toronto Center
Tue 09:42:18 PM 44.2333 -81.9167 106° East 500 575 35,000  Level Toronto Center
Tue 09:43:18 PM 44.1833 -81.7333 111° Southeast 500 575 35,000  Level Toronto Center
Tue 09:44:18 PM 44.1500 -81.5333 103° East 500 575 35,000  Level Toronto Center
Tue 09:45:18 PM 44.1000 -81.3500 111° Southeast 500 575 35,000  Level Toronto Center
Tue 09:46:18 PM 44.0500 -81.1833 113° Southeast 500 575 35,000  Level Toronto Center
Tue 09:47:18 PM 44.0000 -81.0000 111° Southeast 500 575 35,000  Level Toronto Center
Tue 09:48:18 PM 43.9667 -80.8167 104° East 490 564 35,000  Level Toronto Center
Tue 09:49:18 PM 43.9167 -80.6500 113° Southeast 490 564 35,000  Level Toronto Center
Tue 09:50:18 PM 43.8667 -80.4667 111° Southeast 490 564 35,000  Level Toronto Center
Tue 09:51:18 PM 43.8333 -80.2833 104° East 490 564 35,000  Level Toronto Center
Tue 09:52:18 PM 43.7833 -80.1000 111° Southeast 490 564 35,000  Level Toronto Center
Tue 09:53:18 PM 43.7333 -79.9333 112° Southeast 500 575 35,000  Level Toronto Center
Tue 09:54:18 PM 43.6833 -79.7500 111° Southeast 500 575 35,000  Level Toronto Center
Tue 09:55:18 PM 43.6500 -79.5667 104° East 510 587 35,000  Level Toronto Center
Tue 09:56:18 PM 43.6167 -79.3500 102° East 510 587 35,000  Level Toronto Center
Tue 09:57:18 PM 43.6000 -79.1667 97° East 510 587 35,000  Level Toronto Center
Tue 09:58:18 PM 43.5667 -78.9667 103° East 520 598 35,000  Level Toronto Center
Tue 09:59:18 PM 43.5333 -78.7833 104° East 520 598 35,000  Level Toronto Center
Tue 10:00:18 PM 43.5167 -78.5833 96° East 520 598 35,000  Level Toronto Center
Tue 10:01:18 PM 43.4667 -78.4000 111° Southeast 520 598 35,000 -106 Level Toronto Center
Tue 10:02:11 PM 43.4725 -78.2519 87° East 524 603 34,800 -584 Descending Cleveland Center
Tue 10:03:11 PM 43.4433 -78.0556 101° East 524 603 33,900 -951 Descending Cleveland Center
Tue 10:04:55 PM 43.3939 -77.7103 101° East 517 595 32,200 -988 Descending Boston Center
Tue 10:05:55 PM 43.3650 -77.5192 102° East 511 588 31,200 -950 Descending Boston Center
Tue 10:06:55 PM 43.3375 -77.3339 101° East 511 588 30,300 -900 Descending Boston Center
Tue 10:07:55 PM 43.3078 -77.1489 102° East 504 580 29,400 -650 Descending Boston Center
Tue 10:08:55 PM 43.2800 -76.9614 101° East 499 574 29,000 -200 Descending Boston Center
Tue 10:09:55 PM 43.2517 -76.7739 102° East 499 574 29,000  Level Boston Center
Tue 10:10:55 PM 43.2269 -76.6039 101° East 499 574 29,000  Level Boston Center
Tue 10:11:55 PM 43.1961 -76.4164 103° East 499 574 29,000  Level Boston Center
Tue 10:12:55 PM 43.1650 -76.2208 102° East 499 574 29,000  Level Boston Center
Tue 10:13:55 PM 43.1358 -76.0339 102° East 505 581 29,000  Level Boston Center
Tue 10:14:55 PM 43.1042 -75.8414 103° East 510 587 29,000  Level Boston Center
Tue 10:15:55 PM 43.0719 -75.6522 103° East 510 587 29,000  Level Boston Center
Tue 10:16:55 PM 43.0397 -75.4600 103° East 515 593 29,000 -1,200 Level Boston Center
Tue 10:17:55 PM 43.0072 -75.2653 103° East 515 593 26,600 -3,200 Descending Boston Center
Tue 10:18:55 PM 42.9744 -75.0736 103° East 495 570 22,600 -3,550 Descending Boston Center
Tue 10:19:55 PM 42.9489 -74.9136 102° East 459 528 19,500 -3,000 Descending Boston Center
Tue 10:20:55 PM 42.9208 -74.7567 104° East 441 507 16,600 -2,750 Descending Boston Center
Tue 10:21:55 PM 42.8964 -74.6197 104° East 407 468 14,000 -2,750 Descending Boston Center
Tue 10:22:55 PM 42.8658 -74.4628 105° East 390 449 11,100 -2,050 Descending Boston Center
Tue 10:23:55 PM 42.8303 -74.3625 116° Southeast 350 403 9,900 -1,650 Descending Boston Center
Tue 10:24:55 PM 42.7925 -74.2508 115° Southeast 307 353 7,800 -2,000 Descending Boston Center
Tue 10:25:55 PM 42.7603 -74.1650 117° Southeast 291 335 5,900 -1,750 Descending Boston Center
Tue 10:26:55 PM 42.7222 -74.0764 120° Southeast 272 313 4,300 -1,200 Descending Boston Center
Tue 10:27:55 PM 42.6878 -73.9908 119° Southeast 272 313 3,500 -614 Descending Boston Center
Tue 10:29:02 PM 42.6536 -73.9108 120° Southeast 187 215 3,000 -550 Descending Boston Center
Tue 10:29:55 PM 42.6375 -73.8569 112° Southeast 211 243 2,400 -679 Descending Boston Center

Login

Don't have an account? Register now (free) for customized features, flight alerts, and more!